Friday, October 19, 2018, 7:10 AM EDT
Back to Local

KMWN, Mount Washington

Location: Bretton Woods, NH, United States Lat: 44.267
Local Time: 7:10 AM EDT (11:10 GMT) Lon: -71.3
Time Zone: US/Eastern Elev: 6263 ft

Show me the last for .
Show Coded

Time T Td Feel RH Dir Speed Gust Alt SLP Vis Weather Sky Remarks
2018-10-19 06:52 18 18 -8 100 280° 59 63 - - 0 FZFG BLSN VV000 None
2018-10-19 05:54 16 16 -11 100 280° 66 - - - 0 FZFG BLSN VV000 None
2018-10-19 04:49 14 14 -14 100 280° 66 - - - 0 FZFG BLSN VV000 None
2018-10-19 03:55 14 14 -15 100 280° 66 75 - - 0 FZFG VV000 None
2018-10-19 02:53 12 12 -18 100 290° 68 79 - - 0 FZFG VV000 None
2018-10-19 01:52 10 10 -20 100 290° 60 70 - - 0 FZFG VV000 Snow depth: 2"
6-hr Min Temp (2am): 7.5°F
6-hr Max Temp (2am): 10.9°F
2018-10-19 00:54 9 9 -22 100 300° 61 69 - - 0 FZFG VV000 None
2018-10-18 23:56 9 9 -23 100 300° 62 72 - - 0 FZFG VV000 None
2018-10-18 22:56 9 9 -22 100 300° 60 67 - - 0 FZFG VV002 None
2018-10-18 21:56 9 9 -23 100 300° 67 74 - - 0 FZFG BKN000 None
2018-10-18 20:54 9 9 -22 100 290° 71 - - - 0 FZFG VV002 None
2018-10-18 19:47 7 7 -26 100 300° 75 81 - - 0 FZFG BLSN VV002 6-hr Precip Total (8pm): 0.01"
Snow depth: 2"
6-hr Min Temp (8pm): 7.5°F
6-hr Max Temp (8pm): 9.3°F
2018-10-18 18:58 9 9 -22 100 290° 62 70 - - 0 FZFG BLSN VV001 None
2018-10-18 17:52 9 9 -23 100 290° 66 74 - - 0 -SHSN FZFG BLSN VV002 None
2018-10-18 16:51 9 9 -23 100 300° 67 79 - - 0 -SHSN FZFG BLSN VV002 None
2018-10-18 15:49 9 9 -24 100 300° 70 81 - - 0 -SHSN FZFG BLSN VV001 None
2018-10-18 14:47 9 9 -24 100 300° 74 85 - - 0 -SHSN FZFG BLSN VV002 None
2018-10-18 13:54 9 9 -24 100 310° 67 83 - - 0 -SN FZFG BLSN VV002 6-hr Precip Total (2pm): 0.21"
Snow depth: 2"
6-hr Min Temp (2pm): 6.4°F
6-hr Max Temp (2pm): 9.5°F
2018-10-18 12:49 9 9 -23 100 300° 69 79 - - 0 -SN FZFG BLSN VV002 None
2018-10-18 11:58 7 7 -26 100 300° 66 76 - - 0 -SN FZFG BLSN VV000 None
2018-10-18 10:56 7 7 -26 100 310° 60 79 - - 0 -SN FZFG BLSN VV000 None
2018-10-18 09:57 7 7 -27 100 300° 66 84 - - 0 -SN FZFG BLSN VV000 None
2018-10-18 08:51 7 7 -26 100 300° 64 79 - - 0 -SN FZFG BLSN VV000 None
2018-10-18 07:52 7 7 -27 100 310° 63 89 - - 0 -SN FZFG BLSN VV000 6-hr Precip Total (8am): 0.49"
24-hr Precip Total (8am): 0.82"
Snow depth: 1"
6-hr Min Temp (8am): 7.0°F
6-hr Max Temp (8am): 11.3°F

Support USWX by starting your Amazon purchase here.